Time;durP1;ratioP1;P1;durP2;ratioP2;P2;SDS_P1;SDS_P2;PMS_P1;PMS_P2;Temp;Humidity;BMP_temperature;BMP_pressure;BME280_temperature;BME280_humidity;BME280_pressure;Samples;Min_cycle;Max_cycle;Signal;HPM_P1;HPM_P2
2022/06/19 00:02:05;;;;;;;3.10;2.57;;;22.70;60.10;;;;;;4964437;28;20038;-39
2022/06/19 00:04:32;;;;;;;4.85;2.60;;;22.70;60.30;;;;;;4964596;28;20023;-39
2022/06/19 00:06:58;;;;;;;8.43;2.67;;;22.60;61.10;;;;;;4964737;28;20568;-39
2022/06/19 00:09:25;;;;;;;4.93;2.63;;;22.60;60.60;;;;;;4966328;28;20019;-38
2022/06/19 00:11:52;;;;;;;5.70;2.67;;;22.60;61.30;;;;;;4965156;28;20034;-39
2022/06/19 00:14:18;;;;;;;5.72;2.60;;;22.60;61.30;;;;;;4964650;28;20035;-39
2022/06/19 00:16:44;;;;;;;3.70;2.60;;;22.60;61.60;;;;;;4966660;28;20030;-37
2022/06/19 00:19:10;;;;;;;4.07;2.40;;;22.50;61.10;;;;;;4965570;28;20034;-39
2022/06/19 00:21:36;;;;;;;3.38;2.15;;;22.40;62.60;;;;;;4965777;28;20081;-39
2022/06/19 00:24:02;;;;;;;4.80;2.88;;;22.30;62.90;;;;;;4964881;28;20027;-38
2022/06/19 00:26:28;;;;;;;3.90;2.75;;;22.30;62.80;;;;;;4966383;28;20081;-36
2022/06/19 00:28:54;;;;;;;4.55;2.83;;;22.20;64.00;;;;;;4965417;28;20114;-39
2022/06/19 00:31:19;;;;;;;6.05;2.33;;;22.10;64.60;;;;;;4963727;28;20110;-39
2022/06/19 00:33:45;;;;;;;7.28;2.67;;;22.10;64.60;;;;;;4963624;28;20469;-39
2022/06/19 00:36:11;;;;;;;4.90;2.60;;;22.00;64.70;;;;;;4965220;28;20082;-38
2022/06/19 00:38:37;;;;;;;5.35;2.47;;;22.10;66.60;;;;;;4965696;28;20384;-36
2022/06/19 00:41:04;;;;;;;4.10;2.65;;;22.00;65.60;;;;;;4967711;28;20049;-38
2022/06/19 00:43:30;;;;;;;2.97;2.53;;;21.90;65.60;;;;;;4964665;28;20030;-37
2022/06/19 00:46:03;;;;;;;6.97;2.65;;;21.90;66.90;;;;;;4981738;28;20114;-37
2022/06/19 00:48:35;;;;;;;4.40;2.35;;;21.80;67.10;;;;;;4964719;28;20085;-36
2022/06/19 00:51:04;;;;;;;9.52;2.70;;;21.70;67.10;;;;;;4963918;28;20027;-38
2022/06/19 00:53:35;;;;;;;5.10;2.38;;;21.70;67.10;;;;;;4964648;28;20053;-38
2022/06/19 00:56:01;;;;;;;3.35;2.20;;;21.70;66.50;;;;;;4962739;28;20913;-39
2022/06/19 00:58:31;;;;;;;3.30;2.10;;;21.80;66.50;;;;;;4966057;28;20118;-39
2022/06/19 01:01:01;;;;;;;3.30;2.22;;;21.70;65.30;;;;;;4963398;28;20042;-38
2022/06/19 01:03:33;;;;;;;2.40;2.17;;;21.70;64.90;;;;;;4962795;28;20121;-39
2022/06/19 01:06:00;;;;;;;4.38;2.03;;;21.60;65.20;;;;;;4963335;28;20030;-36
2022/06/19 01:08:25;;;;;;;4.38;2.55;;;21.40;70.20;;;;;;4965074;28;20161;-37
2022/06/19 01:10:53;;;;;;;3.80;2.50;;;21.30;69.50;;;;;;4963417;28;20114;-39
2022/06/19 01:13:25;;;;;;;5.00;2.35;;;20.90;77.00;;;;;;4965836;28;20019;-37
2022/06/19 01:15:51;;;;;;;5.10;2.55;;;20.60;81.00;;;;;;4963714;28;20078;-37
2022/06/19 01:18:18;;;;;;;3.38;2.22;;;20.40;80.80;;;;;;4964901;28;20129;-39
2022/06/19 01:20:44;;;;;;;5.95;2.92;;;20.60;81.60;;;;;;4964766;28;20480;-37
2022/06/19 01:23:22;;;;;;;5.30;2.40;;;20.30;85.50;;;;;;4966014;28;20037;-35
2022/06/19 01:25:50;;;;;;;3.50;2.55;;;20.30;83.20;;;;;;4963716;28;20035;-37
2022/06/19 01:28:46;;;;;;;4.55;2.63;;;20.50;81.70;;;;;;4964660;28;20027;-39
2022/06/19 01:31:19;;;;;;;5.68;3.15;;;20.40;83.80;;;;;;4963005;28;20042;-36
2022/06/19 01:33:55;;;;;;;3.58;2.35;;;20.40;83.30;;;;;;4964026;28;20027;-38
2022/06/19 01:36:22;;;;;;;5.30;2.50;;;20.40;81.60;;;;;;4962819;28;20042;-36
2022/06/19 01:38:51;;;;;;;5.47;2.80;;;20.40;80.80;;;;;;4967647;28;20093;-39
2022/06/19 01:41:24;;;;;;;6.05;2.88;;;20.30;82.20;;;;;;4970507;28;20033;-39
2022/06/19 01:43:49;;;;;;;6.85;2.80;;;20.00;84.50;;;;;;4966117;28;20031;-39
2022/06/19 01:46:18;;;;;;;4.32;2.60;;;19.90;85.50;;;;;;4964798;28;20054;-39
2022/06/19 01:48:45;;;;;;;3.15;2.75;;;19.80;85.70;;;;;;4963538;28;20030;-39
2022/06/19 01:51:10;;;;;;;4.07;2.63;;;19.90;85.70;;;;;;4965292;28;20019;-38
2022/06/19 01:53:51;;;;;;;6.57;3.50;;;19.90;85.40;;;;;;4964701;28;20089;-40
2022/06/19 01:56:17;;;;;;;5.15;2.60;;;19.90;85.70;;;;;;4964774;28;20023;-38
2022/06/19 01:58:47;;;;;;;13.35;3.05;;;19.70;86.30;;;;;;4963874;28;20042;-39
2022/06/19 02:01:13;;;;;;;7.60;2.50;;;19.70;86.50;;;;;;4966249;28;20077;-38
2022/06/19 02:03:52;;;;;;;4.53;2.70;;;19.70;86.30;;;;;;4962752;28;20035;-37
2022/06/19 02:06:21;;;;;;;5.13;2.60;;;19.80;86.10;;;;;;4963856;28;20019;-37
2022/06/19 02:08:48;;;;;;;4.85;2.40;;;19.80;85.20;;;;;;4966507;28;20026;-38
2022/06/19 02:11:16;;;;;;;3.78;2.60;;;19.80;86.00;;;;;;4964072;28;20033;-37
2022/06/19 02:13:43;;;;;;;9.85;2.83;;;19.80;85.00;;;;;;4962451;28;20042;-39
2022/06/19 02:16:15;;;;;;;4.68;2.45;;;19.60;88.30;;;;;;4964167;28;20061;-39
2022/06/19 02:18:45;;;;;;;8.82;2.95;;;19.50;88.10;;;;;;4962954;28;20058;-39
2022/06/19 02:21:20;;;;;;;5.43;2.92;;;19.50;89.50;;;;;;4966828;28;20037;-35
2022/06/19 02:23:47;;;;;;;3.75;2.30;;;19.50;89.30;;;;;;4961599;28;20081;-37
2022/06/19 02:26:13;;;;;;;4.25;2.55;;;19.50;88.60;;;;;;4964406;28;20427;-36
2022/06/19 02:28:42;;;;;;;7.38;2.72;;;19.40;90.30;;;;;;4966496;28;20030;-39
2022/06/19 02:31:08;;;;;;;6.72;2.60;;;19.40;90.30;;;;;;4966937;28;20035;-37
2022/06/19 02:33:40;;;;;;;4.13;2.40;;;19.20;91.20;;;;;;4966232;28;20080;-37
2022/06/19 02:36:41;;;;;;;4.60;2.33;;;19.20;90.90;;;;;;4965069;28;20054;-36
2022/06/19 02:39:25;;;;;;;4.25;2.40;;;19.20;92.00;;;;;;4965473;28;20038;-36
2022/06/19 02:42:12;;;;;;;5.20;2.45;;;18.80;92.90;;;;;;4965672;28;20035;-39
2022/06/19 02:44:41;;;;;;;3.83;2.90;;;18.90;91.70;;;;;;4967048;28;20031;-38
2022/06/19 02:47:08;;;;;;;5.63;2.70;;;18.80;91.00;;;;;;4965481;28;20098;-36
2022/06/19 02:49:34;;;;;;;4.40;2.85;;;18.70;90.70;;;;;;4966595;28;20061;-38
2022/06/19 02:52:01;;;;;;;4.03;2.67;;;18.60;91.50;;;;;;4967950;28;20038;-37
2022/06/19 02:54:27;;;;;;;9.20;2.95;;;18.40;92.40;;;;;;4965484;28;20062;-38
2022/06/19 02:56:53;;;;;;;4.38;2.58;;;18.40;92.40;;;;;;4966285;28;20049;-39
2022/06/19 02:59:19;;;;;;;3.63;2.53;;;18.50;94.20;;;;;;4967937;28;20117;-38
2022/06/19 03:01:44;;;;;;;4.00;2.75;;;18.50;93.70;;;;;;4965710;28;20547;-39
2022/06/19 03:04:39;;;;;;;4.63;2.60;;;17.90;97.80;;;;;;4965763;28;20030;-39
2022/06/19 03:07:05;;;;;;;5.88;2.78;;;17.40;99.40;;;;;;4957276;28;20069;-39
2022/06/19 03:09:31;;;;;;;6.47;2.40;;;17.40;98.40;;;;;;4965096;28;20408;-40
2022/06/19 03:11:57;;;;;;;6.10;2.55;;;17.60;97.90;;;;;;4965269;28;20033;-38
2022/06/19 03:14:24;;;;;;;4.40;2.28;;;17.70;97.40;;;;;;4966981;28;20038;-37
2022/06/19 03:16:50;;;;;;;3.10;2.58;;;17.80;97.40;;;;;;4966951;28;20034;-39
2022/06/19 03:19:16;;;;;;;5.68;2.20;;;18.00;97.00;;;;;;4966228;28;20027;-37
2022/06/19 03:21:42;;;;;;;5.45;2.55;;;17.90;96.10;;;;;;4966742;28;21025;-38
2022/06/19 03:24:08;;;;;;;4.07;2.25;;;17.60;96.70;;;;;;4963807;28;20031;-37
2022/06/19 03:26:33;;;;;;;6.53;2.75;;;17.70;96.10;;;;;;4965279;28;20038;-38
2022/06/19 03:28:59;;;;;;;7.32;2.78;;;17.80;94.70;;;;;;4967019;28;20049;-39
2022/06/19 03:31:27;;;;;;;6.57;2.88;;;17.90;93.80;;;;;;4966274;28;20058;-39
2022/06/19 03:33:53;;;;;;;9.57;3.08;;;17.80;94.20;;;;;;4965389;28;20057;-39
2022/06/19 03:36:19;;;;;;;6.25;3.22;;;17.80;94.70;;;;;;4966783;28;20074;-38
2022/06/19 03:38:45;;;;;;;5.30;2.72;;;17.80;94.40;;;;;;4965214;28;20043;-39
2022/06/19 03:41:11;;;;;;;8.82;4.18;;;17.70;96.20;;;;;;4967196;28;20049;-36
2022/06/19 03:43:37;;;;;;;6.60;3.00;;;17.80;95.60;;;;;;4963952;28;20042;-35
2022/06/19 03:46:07;;;;;;;5.63;2.88;;;17.70;97.50;;;;;;4966054;28;20046;-39
2022/06/19 03:48:33;;;;;;;5.85;2.80;;;17.80;96.60;;;;;;4966018;28;20506;-38
2022/06/19 03:50:59;;;;;;;7.75;2.92;;;17.80;97.20;;;;;;4965133;28;20109;-39
2022/06/19 03:53:24;;;;;;;9.82;3.40;;;17.80;97.50;;;;;;4964696;28;20515;-39
2022/06/19 03:55:50;;;;;;;7.70;3.38;;;17.70;98.00;;;;;;4966134;28;20038;-37
2022/06/19 03:58:16;;;;;;;14.52;3.50;;;17.60;98.20;;;;;;4965284;28;20038;-39
2022/06/19 04:00:41;;;;;;;6.85;3.20;;;17.60;98.80;;;;;;4964865;28;20027;-39
2022/06/19 04:03:07;;;;;;;8.85;3.30;;;17.50;99.10;;;;;;4966037;28;20026;-38
2022/06/19 04:05:33;;;;;;;7.25;3.00;;;17.60;99.90;;;;;;4965417;28;20037;-39
2022/06/19 04:07:59;;;;;;;7.05;2.88;;;17.70;99.00;;;;;;4964553;28;20626;-36
2022/06/19 04:10:25;;;;;;;7.03;2.75;;;17.90;99.90;;;;;;4965870;28;20018;-39
2022/06/19 04:12:51;;;;;;;6.10;2.78;;;17.90;98.30;;;;;;4964774;28;21315;-38
2022/06/19 04:15:17;;;;;;;6.88;3.00;;;17.80;99.90;;;;;;4963042;28;20126;-38
2022/06/19 04:17:42;;;;;;;6.43;2.75;;;17.70;99.90;;;;;;4965205;28;20149;-35
2022/06/19 04:20:10;;;;;;;5.93;2.85;;;17.60;99.90;;;;;;4963173;28;20035;-39
2022/06/19 04:22:37;;;;;;;3.85;2.97;;;17.70;99.90;;;;;;4965565;28;20121;-39
2022/06/19 04:25:05;;;;;;;4.80;2.70;;;17.80;99.90;;;;;;4963453;28;20047;-37
2022/06/19 04:27:34;;;;;;;5.15;2.47;;;18.00;99.90;;;;;;4964565;28;20027;-38
2022/06/19 04:30:01;;;;;;;4.55;2.83;;;18.10;99.90;;;;;;4964916;28;20122;-39
2022/06/19 04:32:26;;;;;;;5.55;2.53;;;18.00;99.90;;;;;;4964636;28;20042;-37
2022/06/19 04:34:52;;;;;;;4.10;2.80;;;17.80;99.90;;;;;;4963225;28;20035;-39
2022/06/19 04:37:17;;;;;;;3.70;2.40;;;17.80;99.90;;;;;;4963084;28;20090;-38
2022/06/19 04:39:43;;;;;;;4.80;3.10;;;17.80;99.90;;;;;;4964251;28;20035;-38
2022/06/19 04:42:09;;;;;;;7.13;3.20;;;17.50;99.90;;;;;;4966354;28;20023;-36
2022/06/19 04:44:34;;;;;;;3.45;2.75;;;17.40;99.90;;;;;;4964063;28;20058;-36
2022/06/19 04:47:00;;;;;;;6.28;3.03;;;17.50;99.90;;;;;;4966476;28;20033;-39
2022/06/19 04:49:26;;;;;;;4.63;3.17;;;17.70;99.90;;;;;;4964658;28;20039;-39
2022/06/19 04:51:51;;;;;;;4.43;2.72;;;17.80;99.90;;;;;;4965257;28;20027;-38
2022/06/19 04:54:17;;;;;;;4.93;2.75;;;18.00;99.90;;;;;;4964139;28;20066;-39
2022/06/19 04:56:43;;;;;;;8.80;3.08;;;18.10;99.90;;;;;;4964390;28;20043;-39
2022/06/19 04:59:09;;;;;;;5.47;2.80;;;18.30;99.90;;;;;;4963895;28;20559;-36
2022/06/19 05:01:39;;;;;;;5.10;2.90;;;18.50;99.90;;;;;;4945875;28;20117;-36
2022/06/19 05:04:08;;;;;;;4.70;2.65;;;18.70;99.90;;;;;;4963186;28;20117;-35
2022/06/19 05:06:35;;;;;;;4.80;3.00;;;18.70;99.90;;;;;;4963454;28;20041;-36
2022/06/19 05:09:00;;;;;;;4.47;2.58;;;18.80;99.90;;;;;;4965245;28;20447;-36
2022/06/19 05:11:28;;;;;;;7.75;3.10;;;19.10;99.90;;;;;;4966767;28;20027;-36
2022/06/19 05:13:55;;;;;;;10.15;3.42;;;19.30;99.90;;;;;;4968614;28;20039;-39
2022/06/19 05:16:22;;;;;;;5.90;2.75;;;19.60;99.90;;;;;;4961975;28;20043;-35
2022/06/19 05:18:50;;;;;;;5.95;2.88;;;19.80;98.90;;;;;;4968339;28;20037;-38
2022/06/19 05:21:17;;;;;;;11.80;3.05;;;20.00;96.30;;;;;;4965187;28;20435;-37
2022/06/19 05:23:46;;;;;;;4.50;2.53;;;20.00;95.80;;;;;;4965276;28;20492;-39
2022/06/19 05:26:21;;;;;;;7.13;3.22;;;20.10;94.90;;;;;;4964458;28;20490;-38
2022/06/19 05:28:48;;;;;;;7.82;3.25;;;20.30;93.90;;;;;;4964352;28;20027;-38
2022/06/19 05:31:15;;;;;;;6.67;2.53;;;20.40;93.40;;;;;;4963007;28;20392;-36
2022/06/19 05:33:40;;;;;;;4.00;2.42;;;20.40;93.70;;;;;;4964871;28;20039;-39
2022/06/19 05:36:07;;;;;;;5.75;3.30;;;20.60;93.40;;;;;;4963923;28;20047;-35
2022/06/19 05:38:33;;;;;;;7.07;3.20;;;20.80;93.10;;;;;;4966164;28;20066;-39
2022/06/19 05:41:00;;;;;;;9.70;2.63;;;20.70;91.90;;;;;;4964698;28;20042;-38
2022/06/19 05:43:29;;;;;;;10.70;3.33;;;20.60;93.50;;;;;;4962871;28;20046;-35
2022/06/19 05:45:57;;;;;;;4.85;2.70;;;20.70;93.30;;;;;;4962358;28;20042;-39
2022/06/19 05:48:24;;;;;;;8.20;2.92;;;20.90;92.10;;;;;;4962234;28;20498;-38
2022/06/19 05:51:03;;;;;;;9.70;3.20;;;21.00;90.20;;;;;;4963455;28;20129;-35
2022/06/19 05:53:31;;;;;;;7.43;3.15;;;21.10;89.60;;;;;;4980733;28;20125;-38
2022/06/19 05:55:57;;;;;;;9.93;3.35;;;21.10;90.10;;;;;;4962473;28;20030;-35
2022/06/19 05:58:23;;;;;;;7.68;2.72;;;21.30;85.20;;;;;;4965777;28;20097;-35
2022/06/19 06:00:49;;;;;;;5.45;2.85;;;21.30;87.40;;;;;;4963828;28;20043;-36
2022/06/19 06:03:16;;;;;;;6.60;3.20;;;21.40;87.70;;;;;;4967732;28;20038;-37
2022/06/19 06:05:43;;;;;;;7.45;3.38;;;21.70;86.70;;;;;;4967680;28;20034;-38
2022/06/19 06:08:09;;;;;;;5.68;3.10;;;21.80;86.30;;;;;;4970050;28;20027;-38
2022/06/19 06:10:35;;;;;;;7.90;2.75;;;21.90;87.30;;;;;;4966524;28;20104;-39
2022/06/19 06:13:00;;;;;;;8.60;3.15;;;22.20;83.20;;;;;;4969388;28;20030;-36
2022/06/19 06:15:26;;;;;;;6.85;2.95;;;22.30;81.90;;;;;;4966778;28;20476;-35
2022/06/19 06:17:52;;;;;;;11.27;3.50;;;22.40;80.70;;;;;;4967293;28;20035;-35
2022/06/19 06:20:17;;;;;;;10.13;3.38;;;22.60;77.80;;;;;;4967957;28;20227;-37
2022/06/19 06:22:43;;;;;;;8.82;2.97;;;22.60;80.60;;;;;;4967952;28;20042;-39
2022/06/19 06:25:11;;;;;;;8.82;3.28;;;22.70;81.30;;;;;;4967325;28;20034;-39
2022/06/19 06:27:37;;;;;;;;;;;23.00;76.90;;;;;;4965986;28;20033;-36
2022/06/19 06:30:03;;;;;;;7.28;3.17;;;23.00;77.40;;;;;;4968704;28;20272;-36
2022/06/19 06:32:29;;;;;;;10.63;3.20;;;23.30;76.50;;;;;;4967545;28;20042;-36
2022/06/19 06:34:54;;;;;;;9.18;3.15;;;23.30;74.60;;;;;;4970993;28;20460;-36
2022/06/19 06:37:20;;;;;;;9.77;3.45;;;23.30;76.10;;;;;;4966381;28;20082;-37
2022/06/19 06:39:46;;;;;;;8.00;3.50;;;23.50;76.60;;;;;;4969093;28;20026;-38
2022/06/19 06:42:12;;;;;;;5.85;3.10;;;23.60;75.60;;;;;;4965011;28;20069;-35
2022/06/19 06:44:38;;;;;;;8.85;3.92;;;23.60;77.80;;;;;;4981729;28;20129;-38
2022/06/19 06:47:04;;;;;;;8.52;3.45;;;23.80;78.10;;;;;;4966080;28;20027;-36
2022/06/19 06:49:30;;;;;;;8.73;3.42;;;24.10;73.20;;;;;;4966267;28;20042;-35
2022/06/19 06:51:55;;;;;;;7.45;3.33;;;24.40;76.00;;;;;;4966204;28;20027;-39
2022/06/19 06:54:21;;;;;;;6.38;2.90;;;24.70;73.20;;;;;;4968678;28;20039;-38
2022/06/19 06:56:47;;;;;;;7.40;3.35;;;24.80;74.90;;;;;;4965089;28;20081;-36
2022/06/19 06:59:13;;;;;;;8.88;3.22;;;25.10;72.60;;;;;;4967596;28;20031;-37
2022/06/19 07:01:38;;;;;;;8.50;3.40;;;25.30;72.50;;;;;;4964528;28;20049;-36
2022/06/19 07:04:04;;;;;;;8.98;3.55;;;25.60;72.50;;;;;;4966231;28;20026;-39
2022/06/19 07:06:31;;;;;;;7.35;3.13;;;25.80;69.80;;;;;;4964992;28;20061;-38
2022/06/19 07:08:57;;;;;;;7.30;3.40;;;26.00;63.30;;;;;;4967993;28;20027;-38
2022/06/19 07:11:43;;;;;;;6.90;3.72;;;26.00;65.60;;;;;;4965748;28;20070;-39
2022/06/19 07:14:10;;;;;;;8.30;3.90;;;26.30;66.00;;;;;;4966730;28;20029;-37
2022/06/19 07:16:36;;;;;;;6.03;3.22;;;26.20;62.30;;;;;;4967377;28;20037;-38
2022/06/19 07:19:02;;;;;;;7.80;3.25;;;26.30;62.60;;;;;;4966196;28;20162;-37
2022/06/19 07:21:28;;;;;;;7.68;3.28;;;26.10;62.10;;;;;;4966201;28;20101;-36
2022/06/19 07:23:54;;;;;;;9.55;3.50;;;26.20;63.00;;;;;;4967616;28;20065;-38
2022/06/19 07:26:22;;;;;;;7.97;3.55;;;26.20;64.50;;;;;;4965705;28;20038;-38
2022/06/19 07:28:48;;;;;;;9.98;3.70;;;26.50;63.90;;;;;;4964257;28;20027;-39
2022/06/19 07:31:14;;;;;;;10.75;3.65;;;26.60;64.80;;;;;;4965116;28;20035;-38
2022/06/19 07:33:40;;;;;;;11.40;4.32;;;26.80;63.30;;;;;;4981287;28;20810;-39
2022/06/19 07:36:15;;;;;;;5.30;3.50;;;26.90;62.30;;;;;;4962593;28;20161;-39
2022/06/19 07:38:41;;;;;;;11.00;3.65;;;27.10;61.50;;;;;;4966363;28;20023;-39
2022/06/19 07:41:07;;;;;;;9.27;3.58;;;27.40;61.40;;;;;;4964318;28;20030;-38
2022/06/19 07:43:33;;;;;;;10.82;3.80;;;27.40;59.50;;;;;;4967347;28;20041;-36
2022/06/19 07:45:58;;;;;;;9.35;3.80;;;27.50;60.30;;;;;;4967229;28;20031;-39
2022/06/19 07:51:08;;;;;;;7.80;3.50;;;27.90;56.50;;;;;;4963032;28;20026;-36
2022/06/19 07:53:34;;;;;;;7.28;3.42;;;28.00;55.70;;;;;;4962845;28;20510;-40
2022/06/19 07:56:00;;;;;;;9.20;3.45;;;27.80;55.70;;;;;;4965873;28;20038;-38
2022/06/19 07:58:26;;;;;;;11.68;4.20;;;28.20;58.00;;;;;;4965918;28;20106;-40
2022/06/19 08:00:51;;;;;;;10.32;3.83;;;28.30;57.30;;;;;;4964330;28;20042;-39
2022/06/19 08:03:17;;;;;;;8.68;3.40;;;28.60;57.70;;;;;;4965939;28;20042;-36
2022/06/19 08:05:45;;;;;;;13.18;3.70;;;28.90;55.20;;;;;;4960755;28;20041;-37
2022/06/19 08:08:21;;;;;;;9.50;3.97;;;29.00;54.90;;;;;;4963401;28;20035;-36
2022/06/19 08:10:50;;;;;;;8.15;3.53;;;29.20;54.00;;;;;;4960810;28;21054;-39
2022/06/19 08:13:20;;;;;;;9.77;3.65;;;29.00;52.30;;;;;;4968480;28;20042;-38
2022/06/19 08:15:52;;;;;;;6.57;3.20;;;29.40;53.60;;;;;;4969721;28;20062;-37
2022/06/19 08:18:18;;;;;;;10.25;3.60;;;29.70;52.40;;;;;;4976869;28;20745;-36
2022/06/19 08:20:45;;;;;;;14.43;4.18;;;30.10;51.40;;;;;;4966139;28;20518;-39
2022/06/19 08:23:13;;;;;;;10.57;3.83;;;30.10;49.60;;;;;;4966518;28;20073;-38
2022/06/19 08:25:39;;;;;;;;;;;30.20;50.30;;;;;;4962852;28;20063;-36
2022/06/19 08:28:05;;;;;;;10.27;3.85;;;30.30;48.40;;;;;;4964251;28;19965;-39
2022/06/19 08:30:35;;;;;;;7.15;3.78;;;30.20;47.50;;;;;;4965074;28;20030;-38
2022/06/19 08:33:01;;;;;;;14.52;4.53;;;30.50;48.60;;;;;;4968126;28;20053;-37
2022/06/19 08:35:28;;;;;;;9.80;3.92;;;30.80;48.30;;;;;;4964820;28;20043;-37
2022/06/19 08:38:00;;;;;;;11.75;3.72;;;30.70;47.00;;;;;;4964063;28;20061;-35
2022/06/19 08:40:50;;;;;;;9.32;3.67;;;30.90;47.90;;;;;;4963245;28;20019;-36
2022/06/19 08:43:37;;;;;;;8.25;3.85;;;31.00;45.10;;;;;;4960817;28;20031;-36
2022/06/19 08:46:14;;;;;;;11.70;3.83;;;31.30;44.70;;;;;;4964057;28;20043;-35
2022/06/19 08:48:50;;;;;;;7.03;3.65;;;31.20;47.00;;;;;;4962678;28;20031;-39
2022/06/19 08:51:42;;;;;;;9.30;3.97;;;31.20;46.10;;;;;;4964280;28;21705;-39
2022/06/19 08:54:30;;;;;;;12.93;4.15;;;31.60;46.50;;;;;;4964821;28;20034;-37
2022/06/19 08:57:20;;;;;;;10.52;3.92;;;31.90;46.90;;;;;;4963114;28;20037;-39
2022/06/19 09:00:11;;;;;;;9.38;3.78;;;31.80;44.00;;;;;;4966484;28;20045;-39
2022/06/19 09:02:51;;;;;;;12.52;4.78;;;31.40;44.30;;;;;;4964102;28;20167;-37
2022/06/19 09:05:36;;;;;;;10.93;5.13;;;31.80;45.70;;;;;;4963696;28;20037;-39
2022/06/19 09:08:31;;;;;;;10.27;3.60;;;31.70;43.20;;;;;;4965863;28;20043;-39
2022/06/19 09:11:16;;;;;;;10.77;3.97;;;31.80;44.20;;;;;;4966526;28;20023;-40
2022/06/19 09:14:07;;;;;;;10.85;3.78;;;32.20;43.80;;;;;;4962292;28;20034;-39
2022/06/19 09:16:59;;;;;;;9.18;4.03;;;32.60;43.80;;;;;;4966055;28;20031;-36
2022/06/19 09:19:43;;;;;;;10.02;4.10;;;33.00;42.30;;;;;;4954736;28;20144;-38
2022/06/19 09:22:45;;;;;;;11.95;4.38;;;33.10;42.30;;;;;;4965741;28;20047;-39
2022/06/19 09:25:52;;;;;;;8.48;3.70;;;32.60;40.30;;;;;;4964706;28;20105;-39
2022/06/19 09:28:30;;;;;;;15.40;4.47;;;32.30;39.40;;;;;;4959234;28;20101;-40
2022/06/19 09:31:09;;;;;;;12.60;4.45;;;32.00;40.30;;;;;;4964511;28;20037;-35
2022/06/19 09:33:52;;;;;;;9.02;4.05;;;32.30;40.50;;;;;;4963975;28;20041;-37
2022/06/19 09:36:35;;;;;;;11.82;4.40;;;32.40;40.00;;;;;;4964042;28;20162;-38
2022/06/19 09:39:14;;;;;;;13.30;4.07;;;32.40;38.90;;;;;;4967602;28;20031;-35
2022/06/19 09:42:09;;;;;;;9.35;4.45;;;32.60;38.00;;;;;;4967470;28;20515;-39
2022/06/19 09:44:51;;;;;;;11.02;5.28;;;32.70;39.40;;;;;;4965754;28;20571;-39
2022/06/19 09:47:41;;;;;;;10.10;4.32;;;33.10;37.90;;;;;;4972102;28;20114;-39
2022/06/19 09:50:19;;;;;;;8.57;4.07;;;33.20;37.80;;;;;;4968627;28;20573;-38
2022/06/19 09:52:58;;;;;;;8.13;4.53;;;33.00;38.50;;;;;;4966419;28;20089;-37
2022/06/19 09:55:38;;;;;;;8.23;4.50;;;33.20;37.60;;;;;;4967009;28;20031;-36
2022/06/19 09:58:25;;;;;;;11.88;4.57;;;33.10;37.30;;;;;;4966116;28;20085;-39
2022/06/19 10:00:55;;;;;;;7.05;4.78;;;33.10;37.70;;;;;;4977912;28;20043;-38
2022/06/19 10:03:34;;;;;;;14.00;5.47;;;33.40;38.00;;;;;;4965742;28;20160;-36
2022/06/19 10:06:12;;;;;;;11.45;5.32;;;33.70;36.90;;;;;;4964595;28;20027;-38
2022/06/19 10:09:01;;;;;;;12.48;6.15;;;33.50;38.20;;;;;;4961303;28;20131;-39
2022/06/19 10:11:29;;;;;;;10.05;5.05;;;33.00;36.60;;;;;;4965193;28;20030;-39
2022/06/19 10:13:57;;;;;;;11.88;5.00;;;33.50;37.70;;;;;;4964561;28;20109;-36
2022/06/19 10:16:35;;;;;;;9.90;4.90;;;33.30;37.60;;;;;;4964077;28;20042;-39
2022/06/19 10:19:14;;;;;;;9.68;5.07;;;33.20;37.20;;;;;;4963990;28;20030;-38
2022/06/19 10:24:45;;;;;;;12.40;4.97;;;32.90;38.80;;;;;;4963662;28;20050;-39
2022/06/19 10:27:42;;;;;;;12.23;5.60;;;33.10;41.00;;;;;;4964700;28;20033;-37
2022/06/19 10:30:31;;;;;;;12.90;6.13;;;33.40;39.40;;;;;;4964545;28;20035;-39
2022/06/19 10:33:06;;;;;;;9.80;5.25;;;33.10;38.20;;;;;;4964376;28;20137;-36
2022/06/19 10:36:01;;;;;;;13.32;5.28;;;33.00;38.20;;;;;;4963726;28;20073;-38
2022/06/19 10:38:40;;;;;;;8.23;4.90;;;32.80;39.00;;;;;;4964466;28;20031;-38
2022/06/19 10:44:31;;;;;;;8.85;5.30;;;32.80;39.00;;;;;;4964254;28;20130;-39
2022/06/19 10:47:27;;;;;;;6.78;5.15;;;33.10;39.60;;;;;;4963183;28;20026;-38
2022/06/19 10:50:13;;;;;;;10.93;4.65;;;33.30;39.40;;;;;;4964850;28;20735;-40
2022/06/19 10:52:47;;;;;;;7.57;5.20;;;33.20;37.90;;;;;;4963387;28;20035;-40
2022/06/19 10:55:40;;;;;;;9.77;5.32;;;33.30;38.40;;;;;;4963433;28;20035;-38
2022/06/19 10:58:13;;;;;;;13.15;6.10;;;33.50;37.90;;;;;;4963786;28;20543;-39
2022/06/19 11:00:39;;;;;;;11.60;5.57;;;33.60;36.20;;;;;;4963488;28;20295;-39
2022/06/19 11:06:13;;;;;;;10.13;5.82;;;32.90;39.10;;;;;;4963525;28;20049;-36
2022/06/19 11:08:44;;;;;;;7.97;6.25;;;33.10;40.10;;;;;;4964565;28;20121;-37
2022/06/19 11:11:15;;;;;;;10.05;5.82;;;33.00;38.60;;;;;;4962803;28;20041;-40
2022/06/19 11:14:02;;;;;;;12.20;6.35;;;33.00;38.90;;;;;;4963267;28;20106;-38
2022/06/19 11:16:30;;;;;;;11.07;6.10;;;33.00;38.90;;;;;;4963294;28;20035;-38
2022/06/19 11:18:59;;;;;;;8.00;6.07;;;33.10;39.00;;;;;;4964692;28;20165;-40
2022/06/19 11:21:33;;;;;;;10.20;5.82;;;33.10;38.00;;;;;;4964285;28;20480;-39
2022/06/19 11:24:03;;;;;;;10.75;6.25;;;32.80;38.00;;;;;;4964367;28;20038;-39
2022/06/19 11:26:39;;;;;;;11.98;7.10;;;32.70;38.90;;;;;;4963960;28;20126;-39
2022/06/19 11:29:17;;;;;;;11.50;6.40;;;32.60;42.20;;;;;;4965983;28;20022;-40
2022/06/19 11:32:09;;;;;;;9.55;5.93;;;32.50;38.80;;;;;;4965672;28;20531;-41
2022/06/19 11:34:43;;;;;;;10.15;6.35;;;32.50;39.40;;;;;;4964642;28;20022;-39
2022/06/19 11:37:30;;;;;;;11.68;6.40;;;32.90;40.70;;;;;;4965110;28;20047;-39
2022/06/19 11:39:58;;;;;;;11.00;6.30;;;33.00;38.50;;;;;;4964447;28;20123;-38
2022/06/19 11:42:31;;;;;;;7.43;5.93;;;32.90;40.40;;;;;;4964417;28;20400;-38
2022/06/19 11:45:03;;;;;;;13.10;6.50;;;33.20;39.80;;;;;;4975467;28;20484;-39
2022/06/19 11:48:00;;;;;;;13.98;7.30;;;32.70;38.90;;;;;;4963806;28;20030;-39
2022/06/19 11:50:38;;;;;;;14.48;6.53;;;32.90;39.10;;;;;;4955441;28;20043;-39
2022/06/19 11:53:06;;;;;;;14.02;6.75;;;32.70;39.20;;;;;;4962842;28;20043;-38
2022/06/19 11:55:37;;;;;;;11.95;6.38;;;33.00;40.20;;;;;;4963600;28;20031;-38
2022/06/19 11:58:34;;;;;;;10.90;6.25;;;33.30;39.70;;;;;;4962226;28;20094;-35
2022/06/19 12:01:06;;;;;;;;;;;33.50;40.00;;;;;;4963150;28;20093;-39
2022/06/19 12:03:49;;;;;;;11.50;6.80;;;33.50;37.30;;;;;;4963102;28;20017;-37
2022/06/19 12:06:18;;;;;;;9.25;6.22;;;33.40;39.80;;;;;;4961950;28;20098;-37
2022/06/19 12:08:58;;;;;;;8.02;5.65;;;33.50;39.70;;;;;;4962674;28;20042;-39
2022/06/19 12:11:43;;;;;;;8.65;6.43;;;33.30;40.00;;;;;;4962522;28;20093;-38
2022/06/19 12:14:11;;;;;;;8.20;5.80;;;33.10;38.70;;;;;;4964389;28;20118;-36
2022/06/19 12:16:38;;;;;;;11.95;6.45;;;33.20;38.50;;;;;;4977513;28;20038;-39
2022/06/19 12:19:25;;;;;;;9.70;6.35;;;33.20;38.80;;;;;;4963176;28;20106;-39
2022/06/19 12:21:56;;;;;;;11.20;6.13;;;33.40;40.40;;;;;;4962021;28;20043;-37
2022/06/19 12:24:32;;;;;;;9.98;5.82;;;33.60;37.10;;;;;;4959916;28;20085;-37
2022/06/19 12:27:00;;;;;;;10.73;6.13;;;33.70;37.60;;;;;;4961965;28;20460;-38
2022/06/19 12:29:57;;;;;;;11.82;5.53;;;33.60;35.30;;;;;;4962606;28;20217;-39
2022/06/19 12:32:31;;;;;;;17.08;6.07;;;33.50;35.00;;;;;;4950167;28;20579;-39
2022/06/19 12:35:00;;;;;;;10.68;5.45;;;33.60;34.90;;;;;;4961855;28;20439;-39
2022/06/19 12:37:30;;;;;;;12.43;5.55;;;33.80;35.60;;;;;;4963520;28;20055;-36
2022/06/19 12:39:56;;;;;;;8.15;4.78;;;33.90;36.00;;;;;;4958852;28;20077;-39
2022/06/19 12:42:53;;;;;;;9.77;5.90;;;33.80;34.30;;;;;;4961837;28;20031;-38
2022/06/19 12:45:57;;;;;;;12.63;5.30;;;33.70;35.40;;;;;;4962339;28;20041;-39
2022/06/19 12:48:43;;;;;;;8.10;5.43;;;33.60;36.10;;;;;;4920369;29;20032;-36
2022/06/19 12:51:15;;;;;;;;;;;33.70;35.20;;;;;;4963474;28;20038;-38
2022/06/19 12:54:11;;;;;;;11.45;5.03;;;33.70;36.70;;;;;;4962372;28;19920;-39
2022/06/19 12:56:48;;;;;;;18.77;5.63;;;33.60;34.90;;;;;;4962160;28;20864;-39
2022/06/19 12:59:43;;;;;;;9.82;4.70;;;33.80;36.90;;;;;;4962366;28;20650;-38
2022/06/19 13:02:43;;;;;;;12.18;4.90;;;33.80;35.40;;;;;;4961519;28;20045;-39
2022/06/19 13:05:30;;;;;;;16.17;5.78;;;33.50;32.30;;;;;;4959999;28;20038;-38
2022/06/19 13:08:17;;;;;;;16.02;5.03;;;33.30;33.80;;;;;;4961363;28;20035;-38
2022/06/19 13:11:09;;;;;;;15.57;4.95;;;33.10;33.60;;;;;;4962821;28;20030;-39
2022/06/19 13:13:53;;;;;;;13.73;5.07;;;33.10;34.30;;;;;;4962654;28;20031;-38
2022/06/19 13:16:47;;;;;;;11.70;4.68;;;33.30;33.90;;;;;;4975829;28;20109;-37
2022/06/19 13:19:54;;;;;;;13.05;4.50;;;33.50;34.00;;;;;;4960909;28;20620;-39
2022/06/19 13:22:44;;;;;;;11.13;4.55;;;33.60;33.90;;;;;;4962996;28;20045;-35
2022/06/19 13:25:57;;;;;;;11.38;4.63;;;33.60;33.70;;;;;;4961966;28;20031;-37